createdAt,value
2023-02-26T00:00:26.357Z,100192.64
2023-02-26T00:04:54.204Z,100198.96
2023-02-26T00:09:22.126Z,100203.98
2023-02-26T00:13:53.509Z,100212.93
2023-02-26T00:18:30.627Z,100218.92
2023-02-26T00:22:58.789Z,100223.66
2023-02-26T00:27:26.703Z,100227.52
2023-02-26T00:31:59.449Z,100231.91
2023-02-26T00:36:27.728Z,100235.67
2023-02-26T00:41:00.702Z,100237.95
2023-02-26T00:45:28.574Z,100247.61
2023-02-26T00:50:03.307Z,100248.35
2023-02-26T00:54:30.145Z,100250.98
2023-02-26T00:58:59.354Z,100254.26
2023-02-26T01:03:27.738Z,100260.14
2023-02-26T01:07:55.568Z,100263.22
2023-02-26T01:12:24.141Z,100269.30
2023-02-26T01:16:53.735Z,100272.61
2023-02-26T01:24:55.926Z,100279.73
2023-02-26T01:28:36.574Z,100279.96
2023-02-26T01:32:45.474Z,100283.85
2023-02-26T01:36:58.138Z,100282.78
2023-02-26T01:41:00.294Z,100287.92
2023-02-26T01:45:06.469Z,100298.04
2023-02-26T01:49:14.096Z,100299.20
2023-02-26T01:53:00.567Z,100296.93
2023-02-26T01:56:55.430Z,100313.11
2023-02-26T02:00:45.783Z,100316.12
2023-02-26T02:04:33.814Z,100320.11
2023-02-26T02:08:20.814Z,100327.76
2023-02-26T02:12:09.852Z,100329.20
2023-02-26T02:16:13.467Z,100338.56
2023-02-26T02:19:59.100Z,100343.87
2023-02-26T02:23:56.528Z,100343.77
2023-02-26T02:28:01.921Z,100351.09
2023-02-26T02:31:49.137Z,100351.55
2023-02-26T02:35:49.285Z,100355.80
2023-02-26T02:39:37.291Z,100356.08
2023-02-26T02:43:32.050Z,100360.09
2023-02-26T02:47:22.564Z,100370.23
2023-02-26T02:51:12.197Z,100376.33
2023-02-26T02:55:02.605Z,100385.14
2023-02-26T02:58:59.055Z,100388.21
2023-02-26T03:02:42.594Z,100391.08
2023-02-26T03:06:19.601Z,100395.17
2023-02-26T03:10:08.566Z,100405.55
2023-02-26T03:13:58.991Z,100409.64
2023-02-26T03:18:01.853Z,100424.42
2023-02-26T03:21:58.296Z,100432.23
2023-02-26T03:25:49.205Z,100435.98
2023-02-26T03:29:42.680Z,100444.77
2023-02-26T03:33:32.798Z,100448.99
2023-02-26T03:37:20.730Z,100455.56
2023-02-26T03:41:11.296Z,100467.02
2023-02-26T03:44:59.221Z,100466.95
2023-02-26T03:48:40.198Z,100474.63
2023-02-26T03:52:22.253Z,100479.16
2023-02-26T03:56:15.619Z,100488.00
2023-02-26T04:00:01.768Z,100489.28
2023-02-26T04:03:50.183Z,100495.47
2023-02-26T04:07:38.087Z,100502.41
2023-02-26T04:11:28.862Z,100509.87
2023-02-26T04:15:17.341Z,100507.94
2023-02-26T04:19:05.196Z,100518.16
2023-02-26T04:22:53.543Z,100519.48
2023-02-26T04:26:41.210Z,100526.23
2023-02-26T04:30:29.341Z,100530.16
2023-02-26T04:34:09.832Z,100534.41
2023-02-26T04:37:57.812Z,100535.66
2023-02-26T04:41:45.534Z,100530.04
2023-02-26T04:45:33.363Z,100542.42
2023-02-26T04:49:14.271Z,100545.88
2023-02-26T04:52:55.148Z,100558.28
2023-02-26T04:56:42.973Z,100564.40
2023-02-26T05:00:30.755Z,100567.73
2023-02-26T05:04:18.381Z,100571.38
2023-02-26T05:08:00.194Z,100575.36
2023-02-26T05:11:47.975Z,100583.13
2023-02-26T05:15:28.298Z,100582.02
2023-02-26T05:19:01.327Z,100589.19
2023-02-26T05:22:49.153Z,100592.05
2023-02-26T05:26:36.887Z,100601.84
2023-02-26T05:30:24.978Z,100610.30
2023-02-26T05:34:07.068Z,100613.73
2023-02-26T05:37:54.035Z,100617.20
2023-02-26T05:41:35.242Z,100619.06
2023-02-26T05:45:24.849Z,100620.86
2023-02-26T05:49:12.951Z,100624.14
2023-02-26T05:53:01.110Z,100633.07
2023-02-26T05:56:48.970Z,100641.02
2023-02-26T06:04:33.461Z,100656.39
2023-02-26T06:08:22.564Z,100659.70
2023-02-26T06:12:10.318Z,100668.91
2023-02-26T06:15:57.991Z,100669.16
2023-02-26T06:19:46.057Z,100680.08
2023-02-26T06:23:34.118Z,100690.59
2023-02-26T06:27:15.846Z,100699.92
2023-02-26T06:31:03.077Z,100704.91
2023-02-26T06:34:53.661Z,100709.21
2023-02-26T06:38:42.208Z,100719.45
2023-02-26T06:42:30.136Z,100725.45
2023-02-26T06:46:18.026Z,100725.19
2023-02-26T06:50:10.086Z,100735.23
2023-02-26T06:53:58.071Z,100738.66
2023-02-26T06:57:45.751Z,100743.69
2023-02-26T07:01:52.861Z,100745.63
2023-02-26T07:05:40.551Z,100748.38
2023-02-26T07:09:26.481Z,100756.69
2023-02-26T07:13:16.817Z,100759.57
2023-02-26T07:17:25.388Z,100769.61
2023-02-26T07:21:22.318Z,100771.33
2023-02-26T07:25:14.103Z,100778.82
2023-02-26T07:29:06.040Z,100782.95
2023-02-26T07:33:03.888Z,100780.37
2023-02-26T07:36:55.772Z,100797.74
2023-02-26T07:40:55.718Z,100808.90
2023-02-26T07:48:54.351Z,100826.90
2023-02-26T07:53:22.117Z,100836.73
2023-02-26T07:57:47.252Z,100836.46
2023-02-26T08:02:15.717Z,100845.70
2023-02-26T08:06:44.648Z,100846.86
2023-02-26T08:14:47.648Z,100876.27
2023-02-26T08:19:15.768Z,100884.71
2023-02-26T08:23:43.739Z,100885.05
2023-02-26T08:28:11.987Z,100888.33
2023-02-26T08:32:40.260Z,100895.12
2023-02-26T08:37:08.036Z,100898.80
2023-02-26T08:41:50.842Z,100903.98
2023-02-26T08:46:19.009Z,100907.91
2023-02-26T08:50:29.221Z,100916.52
2023-02-26T08:54:57.759Z,100922.04
2023-02-26T08:59:25.963Z,100927.91
2023-02-26T09:03:53.918Z,100940.87
2023-02-26T09:08:22.464Z,100943.48
2023-02-26T09:12:50.162Z,100955.57
2023-02-26T09:27:40.655Z,100972.70
2023-02-26T09:31:33.046Z,100986.91
2023-02-26T09:35:27.000Z,100997.55
2023-02-26T09:39:38.239Z,101008.09
2023-02-26T09:43:31.771Z,101008.15
2023-02-26T09:47:55.197Z,101014.02
2023-02-26T09:51:45.937Z,101023.02
2023-02-26T09:55:37.994Z,101030.23
2023-02-26T10:03:43.745Z,101040.52
2023-02-26T10:09:10.486Z,101045.91
2023-02-26T10:10:53.960Z,101047.52
2023-02-26T10:14:42.295Z,101055.03
2023-02-26T10:18:52.263Z,101052.61
2023-02-26T10:22:41.561Z,101058.97
2023-02-26T10:26:42.830Z,101056.87
2023-02-26T10:30:41.080Z,101062.02
2023-02-26T10:34:34.929Z,101063.88
2023-02-26T10:38:49.927Z,101064.27
2023-02-26T10:43:05.743Z,101071.80
2023-02-26T10:47:32.681Z,101077.56
2023-02-26T10:52:05.640Z,101080.21
2023-02-26T10:56:10.175Z,101085.33
2023-02-26T11:00:02.892Z,101089.70
2023-02-26T11:08:26.291Z,101105.97
2023-02-26T11:16:45.635Z,101108.39
2023-02-26T11:21:17.668Z,101121.87
2023-02-26T11:25:10.399Z,101122.23
2023-02-26T11:29:10.953Z,101129.83
2023-02-26T11:32:51.664Z,101130.52
2023-02-26T11:36:45.928Z,101132.13
2023-02-26T11:40:41.090Z,101134.67
2023-02-26T11:44:30.250Z,101137.06
2023-02-26T11:52:21.029Z,101146.45
2023-02-26T11:56:30.433Z,101144.96
2023-02-26T11:59:56.806Z,101148.67
2023-02-26T12:04:11.580Z,101149.45
2023-02-26T12:08:01.230Z,101156.41
2023-02-26T12:11:57.726Z,101164.55
2023-02-26T12:16:06.632Z,101169.77
2023-02-26T12:20:22.898Z,101170.39
2023-02-26T12:23:55.256Z,101173.90
2023-02-26T12:28:16.390Z,101172.34
2023-02-26T12:31:41.457Z,101176.05
2023-02-26T12:35:18.060Z,101174.89
2023-02-26T12:39:47.950Z,101179.08
2023-02-26T12:43:48.870Z,101186.66
2023-02-26T12:52:10.141Z,101185.09
2023-02-26T12:55:48.004Z,101192.94
2023-02-26T12:59:42.728Z,101199.05
2023-02-26T13:07:59.122Z,101206.56
2023-02-26T13:11:28.855Z,101211.00
2023-02-26T13:15:46.728Z,101218.77
2023-02-26T13:20:06.093Z,101229.38
2023-02-26T13:24:04.456Z,101226.52
2023-02-26T13:27:54.500Z,101231.70
2023-02-26T13:31:46.842Z,101233.10
2023-02-26T13:35:23.700Z,101238.98
2023-02-26T13:38:34.605Z,101237.13
2023-02-26T13:42:48.914Z,101237.71
2023-02-26T13:46:35.776Z,101242.98
2023-02-26T13:50:38.264Z,101242.77
2023-02-26T13:54:42.965Z,101244.52
2023-02-26T13:58:34.517Z,101245.57
2023-02-26T14:11:00.581Z,101263.73
2023-02-26T14:15:17.310Z,101267.14
2023-02-26T14:19:20.345Z,101266.02
2023-02-26T14:23:15.731Z,101266.61
2023-02-26T14:27:05.164Z,101268.77
2023-02-26T14:30:58.333Z,101271.70
2023-02-26T14:34:50.043Z,101276.38
2023-02-26T14:38:09.605Z,101279.48
2023-02-26T14:42:17.702Z,101287.57
2023-02-26T14:46:14.398Z,101288.59
2023-02-26T14:50:06.259Z,101298.33
2023-02-26T14:54:08.301Z,101304.14
2023-02-26T14:58:12.405Z,101304.94
2023-02-26T15:06:35.099Z,101316.32
2023-02-26T15:17:27.221Z,101324.27
2023-02-26T15:21:04.509Z,101332.30
2023-02-26T15:25:06.331Z,101332.02
2023-02-26T15:29:41.237Z,101337.07
2023-02-26T15:35:30.516Z,101341.57
2023-02-26T15:40:01.478Z,101349.27
2023-02-26T15:44:34.551Z,101350.76
2023-02-26T15:49:13.869Z,101357.02
2023-02-26T15:53:48.911Z,101360.56
2023-02-26T15:57:58.814Z,101364.55
2023-02-26T16:02:03.063Z,101371.78
2023-02-26T16:06:07.414Z,101381.58
2023-02-26T16:10:35.300Z,101382.73
2023-02-26T16:14:37.562Z,101390.99
2023-02-26T16:18:23.925Z,101393.90
2023-02-26T16:21:47.343Z,101399.05
2023-02-26T16:25:44.583Z,101402.94
2023-02-26T16:29:35.383Z,101408.98
2023-02-26T16:33:25.940Z,101417.46
2023-02-26T16:37:18.529Z,101421.77
2023-02-26T16:41:26.862Z,101426.33
2023-02-26T16:45:27.657Z,101433.88
2023-02-26T16:49:14.760Z,101446.21
2023-02-26T16:52:29.857Z,101451.19
2023-02-26T16:57:02.512Z,101456.29
2023-02-26T17:01:42.586Z,101462.12
2023-02-26T17:06:17.378Z,101471.05
2023-02-26T17:10:38.325Z,101475.14
2023-02-26T17:15:13.094Z,101481.19
2023-02-26T17:27:08.621Z,101501.83
2023-02-26T17:30:41.428Z,101496.38
2023-02-26T17:34:33.380Z,101502.73
2023-02-26T17:38:20.987Z,101502.41
2023-02-26T17:42:05.811Z,101508.40
2023-02-26T17:45:54.588Z,101513.15
2023-02-26T17:49:43.102Z,101520.55
2023-02-26T17:53:34.787Z,101523.73
2023-02-26T17:57:26.762Z,101526.35
2023-02-26T18:01:15.182Z,101529.60
2023-02-26T18:05:04.494Z,101531.66
2023-02-26T18:08:52.595Z,101534.33
2023-02-26T18:12:42.177Z,101536.59
2023-02-26T18:16:12.084Z,101540.04
2023-02-26T18:19:49.958Z,101543.57
2023-02-26T18:24:21.152Z,101548.64
2023-02-26T18:28:35.215Z,101554.10
2023-02-26T18:37:17.198Z,101562.06
2023-02-26T18:41:48.439Z,101564.02
2023-02-26T18:45:53.301Z,101572.89
2023-02-26T18:54:40.920Z,101582.98
2023-02-26T18:58:19.699Z,101593.54
2023-02-26T19:02:08.297Z,101596.73
2023-02-26T19:05:46.779Z,101593.96
2023-02-26T19:09:16.679Z,101600.05
2023-02-26T19:12:54.391Z,101606.34
2023-02-26T19:16:37.594Z,101609.17
2023-02-26T19:20:16.127Z,101607.75
2023-02-26T19:23:47.006Z,101611.73
2023-02-26T19:27:18.790Z,101618.01
2023-02-26T19:30:46.187Z,101622.59
2023-02-26T19:34:15.850Z,101628.88
2023-02-26T19:37:39.628Z,101635.87
2023-02-26T19:41:27.626Z,101635.95
2023-02-26T19:45:08.718Z,101649.73
2023-02-26T19:48:39.707Z,101650.51
2023-02-26T19:52:19.787Z,101657.28
2023-02-26T19:56:06.812Z,101659.64
2023-02-26T19:59:52.140Z,101662.38
2023-02-26T20:03:36.978Z,101670.61
2023-02-26T20:06:50.093Z,101674.60
2023-02-26T20:10:23.171Z,101680.98
2023-02-26T20:13:36.458Z,101682.14
2023-02-26T20:17:14.856Z,101687.42
2023-02-26T20:20:56.419Z,101688.78
2023-02-26T20:24:45.254Z,101699.87
2023-02-26T20:28:26.770Z,101700.38
2023-02-26T20:31:51.302Z,101708.08
2023-02-26T20:35:33.406Z,101711.98
2023-02-26T20:39:22.478Z,101718.16
2023-02-26T20:43:04.168Z,101722.95
2023-02-26T20:46:19.902Z,101726.40
2023-02-26T20:50:08.432Z,101730.14
2023-02-26T20:54:08.596Z,101736.55
2023-02-26T20:57:57.051Z,101741.46
2023-02-26T21:01:36.282Z,101738.10
2023-02-26T21:06:12.878Z,101735.48
2023-02-26T21:09:27.994Z,101736.32
2023-02-26T21:13:18.337Z,101743.66
2023-02-26T21:17:06.262Z,101741.02
2023-02-26T21:20:39.002Z,101745.44
2023-02-26T21:24:27.537Z,101749.17
2023-02-26T21:27:53.374Z,101750.10
2023-02-26T21:31:42.452Z,101761.49
2023-02-26T21:35:33.105Z,101765.68
2023-02-26T21:39:21.546Z,101764.59
2023-02-26T21:43:10.762Z,101767.46
2023-02-26T21:46:59.056Z,101770.73
2023-02-26T21:50:40.337Z,101773.42
2023-02-26T21:54:28.307Z,101775.52
2023-02-26T21:58:16.107Z,101774.63
2023-02-26T22:01:48.479Z,101774.89
2023-02-26T22:05:24.604Z,101777.51
2023-02-26T22:09:11.901Z,101775.59
2023-02-26T22:12:52.232Z,101777.97
2023-02-26T22:16:40.014Z,101777.09
2023-02-26T22:20:28.057Z,101779.02
2023-02-26T22:24:15.752Z,101785.95
2023-02-26T22:27:56.590Z,101788.54
2023-02-26T22:31:37.016Z,101796.73
2023-02-26T22:35:06.212Z,101797.46
2023-02-26T22:38:54.082Z,101799.93
2023-02-26T22:42:35.358Z,101800.74
2023-02-26T22:46:15.644Z,101805.61
2023-02-26T22:49:55.250Z,101806.82
2023-02-26T22:53:43.389Z,101801.63
2023-02-26T22:57:16.700Z,101808.92
2023-02-26T23:01:05.308Z,101807.83
2023-02-26T23:04:45.549Z,101805.88
2023-02-26T23:08:22.958Z,101807.41
2023-02-26T23:11:54.777Z,101810.70
2023-02-26T23:15:42.538Z,101806.77
2023-02-26T23:19:30.285Z,101810.64
2023-02-26T23:23:18.265Z,101813.91
2023-02-26T23:26:51.181Z,101813.70
2023-02-26T23:30:22.290Z,101818.02
2023-02-26T23:34:10.003Z,101821.52
2023-02-26T23:37:39.714Z,101828.21
2023-02-26T23:41:18.256Z,101829.69
2023-02-26T23:44:58.521Z,101832.46
2023-02-26T23:48:30.708Z,101823.73
2023-02-26T23:52:18.681Z,101827.52
2023-02-26T23:55:50.943Z,101834.59
2023-02-26T23:59:37.297Z,101835.96
